createdAt,value
2023-05-19T00:01:52.548Z,8.88
2023-05-19T00:04:21.572Z,8.81
2023-05-19T00:06:52.271Z,8.79
2023-05-19T00:09:20.777Z,8.73
2023-05-19T00:11:49.319Z,8.78
2023-05-19T00:14:17.930Z,8.73
2023-05-19T00:16:47.525Z,8.72
2023-05-19T00:19:17.095Z,8.69
2023-05-19T00:21:45.432Z,8.65
2023-05-19T00:24:13.530Z,8.72
2023-05-19T00:26:41.694Z,8.65
2023-05-19T00:29:09.805Z,8.62
2023-05-19T00:31:38.009Z,8.62
2023-05-19T00:34:06.744Z,8.56
2023-05-19T00:36:36.178Z,8.56
2023-05-19T00:39:04.727Z,8.56
2023-05-19T00:41:32.891Z,8.50
2023-05-19T00:44:01.164Z,8.42
2023-05-19T00:46:30.448Z,8.41
2023-05-19T00:48:58.540Z,8.40
2023-05-19T00:51:29.757Z,8.37
2023-05-19T00:53:59.399Z,8.35
2023-05-19T00:56:28.075Z,8.32
2023-05-19T00:58:56.496Z,8.29
2023-05-19T01:01:26.897Z,8.33
2023-05-19T01:03:56.855Z,8.30
2023-05-19T01:06:25.547Z,8.27
2023-05-19T01:08:53.657Z,8.29
2023-05-19T01:11:23.263Z,8.28
2023-05-19T01:13:51.506Z,8.30
2023-05-19T01:16:26.293Z,8.25
2023-05-19T01:19:01.872Z,8.24
2023-05-19T01:22:07.946Z,8.12
2023-05-19T01:24:58.035Z,8.12
2023-05-19T01:27:52.366Z,8.12
2023-05-19T01:30:31.547Z,8.04
2023-05-19T01:33:02.372Z,8.08
2023-05-19T01:35:33.006Z,8.01
2023-05-19T01:38:02.690Z,8.02
2023-05-19T01:40:32.143Z,8.00
2023-05-19T01:43:01.886Z,7.94
2023-05-19T01:45:34.066Z,8.00
2023-05-19T01:48:04.696Z,8.00
2023-05-19T01:50:34.115Z,7.93
2023-05-19T01:53:03.286Z,7.91
2023-05-19T01:55:33.893Z,7.91
2023-05-19T01:58:11.170Z,7.85
2023-05-19T02:00:58.350Z,7.87
2023-05-19T02:03:38.785Z,7.86
2023-05-19T02:06:20.526Z,7.82
2023-05-19T02:08:58.012Z,7.80
2023-05-19T02:11:32.288Z,7.78
2023-05-19T02:14:03.960Z,7.76
2023-05-19T02:16:35.121Z,7.77
2023-05-19T02:19:03.309Z,7.73
2023-05-19T02:21:31.485Z,7.71
2023-05-19T02:23:59.565Z,7.70
2023-05-19T02:26:27.711Z,7.68
2023-05-19T02:28:58.870Z,7.70
2023-05-19T02:31:26.925Z,7.68
2023-05-19T02:33:56.496Z,7.79
2023-05-19T02:36:26.596Z,7.69
2023-05-19T02:38:54.789Z,7.71
2023-05-19T02:41:22.837Z,7.70
2023-05-19T02:43:51.000Z,7.70
2023-05-19T02:46:20.399Z,7.64
2023-05-19T02:48:48.564Z,7.55
2023-05-19T02:51:17.986Z,7.46
2023-05-19T02:53:46.068Z,7.55
2023-05-19T02:56:14.143Z,7.53
2023-05-19T02:58:43.225Z,7.55
2023-05-19T03:01:11.447Z,7.48
2023-05-19T03:03:39.599Z,7.49
2023-05-19T03:06:08.823Z,7.53
2023-05-19T03:08:40.743Z,7.63
2023-05-19T03:11:10.545Z,7.54
2023-05-19T03:13:38.660Z,7.47
2023-05-19T03:16:08.452Z,7.41
2023-05-19T03:18:37.232Z,7.40
2023-05-19T03:21:08.497Z,7.33
2023-05-19T03:23:38.031Z,7.36
2023-05-19T03:26:06.286Z,7.36
2023-05-19T03:28:34.570Z,7.35
2023-05-19T03:31:02.714Z,7.35
2023-05-19T03:33:30.858Z,7.36
2023-05-19T03:35:59.177Z,7.31
2023-05-19T03:38:27.407Z,7.34
2023-05-19T03:40:56.855Z,7.26
2023-05-19T03:43:25.133Z,7.20
2023-05-19T03:45:53.618Z,7.26
2023-05-19T03:48:21.805Z,7.28
2023-05-19T03:50:52.581Z,7.29
2023-05-19T03:53:20.752Z,7.26
2023-05-19T03:55:49.749Z,7.22
2023-05-19T03:58:19.241Z,7.22
2023-05-19T04:00:47.865Z,7.25
2023-05-19T04:03:16.314Z,7.24
2023-05-19T04:05:44.558Z,7.20
2023-05-19T04:08:12.725Z,7.18
2023-05-19T04:10:40.914Z,7.21
2023-05-19T04:13:09.073Z,7.26
2023-05-19T04:15:38.742Z,7.24
2023-05-19T04:18:07.045Z,7.30
2023-05-19T04:20:37.399Z,7.31
2023-05-19T04:23:05.503Z,7.30
2023-05-19T04:25:33.724Z,7.24
2023-05-19T04:28:03.300Z,7.30
2023-05-19T04:30:31.728Z,7.33
2023-05-19T04:33:01.389Z,7.45
2023-05-19T04:35:29.598Z,7.41
2023-05-19T04:37:57.755Z,7.47
2023-05-19T04:40:31.239Z,7.39
2023-05-19T04:43:02.232Z,7.42
2023-05-19T04:45:33.107Z,7.48
2023-05-19T04:48:02.813Z,7.49
2023-05-19T04:50:32.968Z,7.49
2023-05-19T04:53:01.313Z,7.57
2023-05-19T04:55:29.512Z,7.56
2023-05-19T04:58:00.002Z,7.61
2023-05-19T05:00:28.372Z,7.57
2023-05-19T05:02:57.648Z,7.56
2023-05-19T05:05:27.294Z,7.64
2023-05-19T05:07:55.313Z,7.71
2023-05-19T05:10:23.540Z,7.75
2023-05-19T05:12:52.452Z,7.78
2023-05-19T05:15:21.976Z,7.87
2023-05-19T05:17:50.727Z,7.96
2023-05-19T05:20:22.718Z,8.02
2023-05-19T05:22:52.971Z,8.06
2023-05-19T05:25:22.443Z,8.12
2023-05-19T05:27:50.807Z,8.09
2023-05-19T05:30:18.903Z,8.17
2023-05-19T05:32:47.236Z,8.28
2023-05-19T05:35:15.687Z,8.37
2023-05-19T05:37:43.767Z,8.48
2023-05-19T05:40:16.015Z,8.56
2023-05-19T05:42:44.634Z,8.60
2023-05-19T05:45:12.901Z,8.66
2023-05-19T05:47:41.709Z,8.74
2023-05-19T05:50:11.350Z,8.70
2023-05-19T05:52:42.293Z,8.76
2023-05-19T05:55:12.019Z,8.86
2023-05-19T05:57:42.024Z,8.93
2023-05-19T06:00:15.618Z,9.03
2023-05-19T06:02:47.688Z,9.11
2023-05-19T06:05:16.688Z,9.23
2023-05-19T06:07:45.101Z,9.34
2023-05-19T06:10:13.401Z,9.45
2023-05-19T06:12:43.396Z,9.60
2023-05-19T06:15:12.235Z,9.70
2023-05-19T06:17:40.390Z,9.79
2023-05-19T06:20:10.257Z,9.86
2023-05-19T06:22:38.454Z,10.04
2023-05-19T06:25:09.019Z,10.14
2023-05-19T06:27:37.319Z,10.26
2023-05-19T06:30:08.817Z,10.41
2023-05-19T06:32:36.985Z,10.61
2023-05-19T06:35:05.821Z,10.75
2023-05-19T06:37:33.925Z,10.86
2023-05-19T06:40:02.122Z,11.02
2023-05-19T06:42:30.250Z,11.13
2023-05-19T06:45:01.269Z,11.31
2023-05-19T06:47:30.875Z,11.37
2023-05-19T06:49:59.171Z,11.43
2023-05-19T06:52:27.342Z,11.53
2023-05-19T06:54:58.148Z,11.74
2023-05-19T06:57:26.247Z,11.79
2023-05-19T06:59:54.343Z,11.91
2023-05-19T07:02:22.440Z,12.02
2023-05-19T07:04:54.024Z,12.09
2023-05-19T07:07:22.675Z,12.27
2023-05-19T07:09:50.828Z,12.36
2023-05-19T07:12:19.022Z,12.51
2023-05-19T07:14:47.094Z,12.63
2023-05-19T07:17:15.834Z,12.67
2023-05-19T07:19:43.887Z,12.64
2023-05-19T07:22:13.401Z,12.72
2023-05-19T07:24:41.610Z,12.87
2023-05-19T07:27:10.977Z,13.07
2023-05-19T07:29:39.093Z,13.21
2023-05-19T07:32:08.112Z,13.28
2023-05-19T07:34:36.805Z,13.38
2023-05-19T07:37:05.159Z,13.56
2023-05-19T07:39:35.151Z,13.77
2023-05-19T07:42:03.322Z,13.81
2023-05-19T07:44:34.687Z,13.96
2023-05-19T07:47:02.786Z,14.25
2023-05-19T07:49:30.885Z,14.41
2023-05-19T07:51:59.159Z,14.48
2023-05-19T07:54:27.333Z,14.75
2023-05-19T07:56:56.804Z,14.81
2023-05-19T07:59:25.538Z,14.97
2023-05-19T08:01:53.691Z,15.07
2023-05-19T08:04:21.888Z,15.18
2023-05-19T08:06:50.296Z,15.41
2023-05-19T08:09:18.841Z,15.54
2023-05-19T08:11:47.984Z,15.77
2023-05-19T08:14:17.883Z,15.91
2023-05-19T08:16:46.628Z,16.17
2023-05-19T08:19:17.566Z,16.39
2023-05-19T08:21:45.861Z,16.60
2023-05-19T08:24:13.988Z,16.73
2023-05-19T08:26:42.159Z,16.80
2023-05-19T08:29:10.231Z,16.92
2023-05-19T08:31:39.798Z,17.07
2023-05-19T08:34:07.964Z,17.24
2023-05-19T08:36:36.193Z,17.44
2023-05-19T08:39:04.605Z,17.58
2023-05-19T08:41:32.925Z,17.64
2023-05-19T08:44:01.173Z,17.84
2023-05-19T08:46:30.607Z,18.04
2023-05-19T08:49:06.528Z,18.28
2023-05-19T08:51:41.552Z,18.55
2023-05-19T08:54:15.817Z,18.79
2023-05-19T08:56:45.577Z,18.92
2023-05-19T08:59:15.262Z,18.92
2023-05-19T09:01:45.817Z,19.22
2023-05-19T09:04:16.735Z,19.35
2023-05-19T09:06:45.443Z,19.53
2023-05-19T09:09:16.306Z,19.37
2023-05-19T09:11:47.510Z,19.45
2023-05-19T09:14:15.731Z,19.42
2023-05-19T09:16:44.493Z,19.78
2023-05-19T09:19:16.634Z,19.83
2023-05-19T09:21:45.853Z,19.74
2023-05-19T09:24:14.124Z,19.93
2023-05-19T09:26:43.600Z,19.93
2023-05-19T09:29:15.138Z,20.07
2023-05-19T09:31:50.633Z,20.18
2023-05-19T09:34:21.157Z,20.23
2023-05-19T09:36:50.825Z,20.60
2023-05-19T09:39:19.833Z,20.19
2023-05-19T09:41:49.036Z,20.47
2023-05-19T09:44:24.229Z,20.57
2023-05-19T09:46:53.908Z,20.62
2023-05-19T09:49:24.830Z,20.74
2023-05-19T09:51:55.410Z,20.83
2023-05-19T09:54:24.950Z,20.48
2023-05-19T09:56:58.697Z,20.82
2023-05-19T09:59:29.007Z,21.15
2023-05-19T10:02:00.106Z,21.01
2023-05-19T10:04:32.097Z,21.19
2023-05-19T10:07:00.655Z,21.34
2023-05-19T10:09:30.361Z,21.31
2023-05-19T10:11:59.949Z,21.39
2023-05-19T10:14:29.281Z,21.49
2023-05-19T10:16:59.198Z,21.67
2023-05-19T10:19:29.806Z,21.89
2023-05-19T10:21:58.224Z,22.16
2023-05-19T10:24:26.734Z,21.83
2023-05-19T10:27:01.092Z,21.45
2023-05-19T10:29:32.476Z,21.67
2023-05-19T10:32:04.272Z,21.72
2023-05-19T10:35:00.756Z,21.96
2023-05-19T10:37:40.842Z,21.96
2023-05-19T10:40:14.839Z,21.99
2023-05-19T10:42:54.968Z,21.89
2023-05-19T10:45:28.339Z,21.69
2023-05-19T10:47:56.612Z,21.95
2023-05-19T10:50:26.105Z,21.54
2023-05-19T10:52:55.731Z,21.54
2023-05-19T10:55:48.704Z,21.89
2023-05-19T10:58:16.978Z,22.24
2023-05-19T11:00:45.394Z,22.10
2023-05-19T11:03:15.138Z,22.67
2023-05-19T11:05:50.893Z,22.97
2023-05-19T11:08:33.262Z,22.82
2023-05-19T11:11:14.589Z,23.12
2023-05-19T11:13:49.054Z,23.03
2023-05-19T11:16:22.006Z,23.10
2023-05-19T11:18:50.966Z,23.20
2023-05-19T11:21:22.459Z,23.69
2023-05-19T11:23:52.611Z,23.35
2023-05-19T11:26:43.382Z,23.76
2023-05-19T11:29:12.788Z,24.14
2023-05-19T11:31:41.410Z,23.88
2023-05-19T11:34:10.393Z,24.21
2023-05-19T11:36:41.047Z,24.21
2023-05-19T11:39:10.612Z,24.67
2023-05-19T11:41:40.986Z,24.31
2023-05-19T11:44:12.235Z,24.32
2023-05-19T11:46:40.475Z,24.43
2023-05-19T11:49:08.745Z,24.59
2023-05-19T11:51:39.524Z,24.99
2023-05-19T11:54:07.808Z,25.09
2023-05-19T11:56:36.896Z,25.22
2023-05-19T11:59:04.995Z,25.21
2023-05-19T12:01:34.109Z,25.07
2023-05-19T12:04:02.459Z,24.85
2023-05-19T12:06:31.182Z,25.02
2023-05-19T12:09:01.086Z,24.92
2023-05-19T12:11:30.139Z,25.05
2023-05-19T12:14:00.793Z,25.30
2023-05-19T12:16:37.905Z,25.56
2023-05-19T12:19:07.466Z,25.65
2023-05-19T12:21:35.703Z,25.68
2023-05-19T12:24:07.144Z,26.12
2023-05-19T12:26:36.609Z,26.00
2023-05-19T12:29:07.755Z,25.58
2023-05-19T12:31:36.356Z,25.41
2023-05-19T12:34:04.683Z,25.06
2023-05-19T12:36:33.608Z,25.23
2023-05-19T12:39:01.888Z,25.75
2023-05-19T12:41:31.941Z,25.86
2023-05-19T12:44:00.117Z,25.87
2023-05-19T12:46:28.210Z,26.04
2023-05-19T12:49:00.789Z,26.03
2023-05-19T12:51:28.950Z,25.74
2023-05-19T12:53:59.317Z,25.86
2023-05-19T12:56:28.176Z,26.05
2023-05-19T12:58:57.761Z,25.81
2023-05-19T13:01:25.940Z,25.79
2023-05-19T13:03:54.291Z,25.68
2023-05-19T13:06:22.528Z,25.91
2023-05-19T13:08:50.625Z,26.06
2023-05-19T13:11:19.190Z,25.88
2023-05-19T13:13:47.305Z,25.93
2023-05-19T13:16:16.791Z,25.92
2023-05-19T13:18:45.034Z,25.86
2023-05-19T13:21:13.517Z,26.17
2023-05-19T13:23:41.680Z,26.04
2023-05-19T13:26:11.640Z,25.48
2023-05-19T13:28:39.719Z,25.26
2023-05-19T13:31:07.863Z,25.14
2023-05-19T13:33:37.372Z,25.65
2023-05-19T13:36:06.289Z,26.26
2023-05-19T13:38:34.396Z,26.49
2023-05-19T13:41:02.644Z,26.39
2023-05-19T13:43:31.582Z,26.42
2023-05-19T13:45:59.814Z,26.19
2023-05-19T13:48:27.987Z,25.75
2023-05-19T13:50:57.581Z,25.42
2023-05-19T13:53:26.579Z,25.75
2023-05-19T13:55:56.225Z,25.74
2023-05-19T13:58:24.284Z,25.95
2023-05-19T14:00:54.747Z,25.86
2023-05-19T14:03:23.000Z,26.06
2023-05-19T14:05:51.111Z,25.78
2023-05-19T14:08:21.000Z,25.96
2023-05-19T14:10:49.449Z,26.44
2023-05-19T14:13:32.654Z,26.31
2023-05-19T14:16:06.125Z,25.73
2023-05-19T14:18:34.500Z,25.85
2023-05-19T14:21:02.688Z,25.85
2023-05-19T14:23:33.118Z,25.55
2023-05-19T14:26:01.512Z,26.12
2023-05-19T14:28:29.640Z,26.12
2023-05-19T14:30:57.764Z,26.38
2023-05-19T14:33:25.926Z,26.19
2023-05-19T14:35:54.091Z,26.42
2023-05-19T14:38:22.545Z,26.60
2023-05-19T14:40:52.657Z,26.46
2023-05-19T14:43:23.589Z,26.76
2023-05-19T14:45:51.896Z,26.55
2023-05-19T14:48:20.273Z,26.29
2023-05-19T14:50:49.224Z,26.19
2023-05-19T14:53:17.713Z,26.43
2023-05-19T14:55:45.811Z,26.56
2023-05-19T14:58:27.417Z,26.61
2023-05-19T15:00:58.360Z,26.50
2023-05-19T15:03:26.723Z,26.34
2023-05-19T15:05:54.814Z,26.06
2023-05-19T15:08:23.485Z,25.80
2023-05-19T15:10:51.826Z,25.26
2023-05-19T15:13:21.578Z,25.40
2023-05-19T15:15:49.721Z,25.92
2023-05-19T15:18:18.873Z,25.44
2023-05-19T15:20:47.569Z,25.30
2023-05-19T15:23:15.818Z,25.38
2023-05-19T15:25:45.563Z,25.31
2023-05-19T15:28:13.697Z,25.17
2023-05-19T15:30:44.470Z,25.28
2023-05-19T15:33:12.867Z,25.26
2023-05-19T15:35:41.073Z,25.21
2023-05-19T15:38:09.175Z,24.96
2023-05-19T15:40:37.407Z,25.24
2023-05-19T15:43:05.494Z,25.18
2023-05-19T15:45:33.588Z,25.08
2023-05-19T15:48:03.299Z,24.93
2023-05-19T15:50:31.448Z,24.94
2023-05-19T15:52:59.569Z,25.10
2023-05-19T15:55:30.676Z,25.00
2023-05-19T15:57:58.751Z,24.83
2023-05-19T16:00:26.841Z,24.45
2023-05-19T16:02:55.015Z,24.59
2023-05-19T16:05:24.633Z,24.83
2023-05-19T16:07:52.693Z,24.47
2023-05-19T16:10:20.802Z,24.12
2023-05-19T16:12:48.944Z,24.14
2023-05-19T16:15:17.137Z,24.28
2023-05-19T16:17:45.498Z,24.14
2023-05-19T16:20:14.039Z,23.95
2023-05-19T16:22:43.500Z,23.88
2023-05-19T16:25:12.079Z,23.60
2023-05-19T16:27:40.198Z,23.83
2023-05-19T16:30:09.626Z,23.85
2023-05-19T16:32:37.739Z,23.91
2023-05-19T16:35:06.640Z,24.24
2023-05-19T16:37:34.879Z,23.75
2023-05-19T16:40:05.010Z,23.58
2023-05-19T16:42:33.096Z,23.36
2023-05-19T16:45:04.610Z,23.63
2023-05-19T16:47:32.835Z,23.07
2023-05-19T16:50:00.973Z,23.11
2023-05-19T16:52:29.061Z,22.77
2023-05-19T16:54:57.172Z,22.85
2023-05-19T16:57:26.652Z,22.81
2023-05-19T16:59:54.757Z,22.81
2023-05-19T17:02:22.934Z,22.60
2023-05-19T17:04:51.145Z,22.51
2023-05-19T17:07:19.326Z,22.61
2023-05-19T17:09:48.136Z,22.57
2023-05-19T17:12:16.376Z,22.55
2023-05-19T17:14:45.817Z,22.74
2023-05-19T17:17:16.183Z,22.50
2023-05-19T17:19:44.419Z,22.56
2023-05-19T17:22:12.539Z,22.28
2023-05-19T17:24:41.320Z,22.36
2023-05-19T17:27:09.458Z,22.37
2023-05-19T17:29:37.554Z,22.22
2023-05-19T17:32:07.529Z,22.28
2023-05-19T17:34:39.271Z,22.12
2023-05-19T17:37:07.372Z,22.04
2023-05-19T17:39:35.971Z,22.01
2023-05-19T17:42:04.160Z,21.98
2023-05-19T17:44:32.275Z,21.95
2023-05-19T17:47:01.624Z,21.88
2023-05-19T17:49:31.193Z,21.99
2023-05-19T17:51:59.754Z,21.90
2023-05-19T17:54:28.354Z,21.90
2023-05-19T17:56:59.928Z,21.65
2023-05-19T17:59:28.684Z,21.66
2023-05-19T18:01:57.558Z,21.64
2023-05-19T18:04:26.365Z,21.57
2023-05-19T18:06:57.941Z,21.41
2023-05-19T18:09:29.134Z,21.17
2023-05-19T18:11:57.670Z,20.95
2023-05-19T18:14:25.744Z,20.91
2023-05-19T18:16:53.931Z,20.67
2023-05-19T18:19:22.369Z,20.55
2023-05-19T18:21:50.872Z,20.16
2023-05-19T18:24:20.361Z,20.06
2023-05-19T18:26:48.577Z,19.88
2023-05-19T18:29:19.403Z,19.82
2023-05-19T18:31:47.787Z,19.75
2023-05-19T18:34:16.027Z,19.72
2023-05-19T18:36:44.207Z,19.62
2023-05-19T18:39:12.356Z,19.61
2023-05-19T18:41:42.813Z,19.39
2023-05-19T18:44:11.395Z,19.34
2023-05-19T18:46:39.634Z,19.27
2023-05-19T18:49:08.725Z,19.03
2023-05-19T18:51:38.452Z,18.92
2023-05-19T18:54:06.692Z,18.85
2023-05-19T18:56:35.536Z,18.81
2023-05-19T18:59:05.154Z,18.71
2023-05-19T19:01:33.344Z,18.53
2023-05-19T19:04:02.089Z,18.57
2023-05-19T19:06:30.329Z,18.51
2023-05-19T19:08:58.432Z,18.32
2023-05-19T19:11:26.667Z,18.25
2023-05-19T19:13:56.794Z,18.16
2023-05-19T19:16:26.506Z,18.05
2023-05-19T19:18:54.923Z,18.07
2023-05-19T19:21:24.140Z,17.82
2023-05-19T19:23:54.369Z,17.88
2023-05-19T19:26:25.024Z,17.73
2023-05-19T19:28:53.229Z,17.51
2023-05-19T19:31:21.460Z,17.58
2023-05-19T19:33:51.027Z,17.46
2023-05-19T19:36:19.193Z,17.46
2023-05-19T19:38:47.450Z,17.37
2023-05-19T19:41:15.595Z,17.18
2023-05-19T19:43:43.747Z,17.10
2023-05-19T19:46:11.941Z,17.08
2023-05-19T19:48:40.253Z,16.95
2023-05-19T19:51:11.952Z,16.86
2023-05-19T19:53:40.236Z,16.83
2023-05-19T19:56:08.327Z,16.64
2023-05-19T19:58:36.644Z,16.58
2023-05-19T20:01:05.921Z,16.45
2023-05-19T20:03:34.397Z,16.41
2023-05-19T20:06:02.698Z,16.30
2023-05-19T20:08:32.268Z,16.20
2023-05-19T20:11:00.429Z,16.15
2023-05-19T20:13:28.828Z,16.05
2023-05-19T20:15:58.785Z,15.96
2023-05-19T20:18:27.921Z,15.92
2023-05-19T20:20:56.435Z,15.82
2023-05-19T20:23:24.823Z,15.74
2023-05-19T20:26:09.381Z,15.76
2023-05-19T20:28:38.747Z,15.69
2023-05-19T20:31:08.999Z,15.58
2023-05-19T20:33:40.228Z,15.52
2023-05-19T20:36:11.070Z,15.44
2023-05-19T20:38:39.515Z,15.41
2023-05-19T20:41:09.035Z,15.43
2023-05-19T20:43:37.187Z,15.31
2023-05-19T20:46:05.639Z,15.25
2023-05-19T20:48:33.736Z,15.14
2023-05-19T20:51:01.882Z,15.09
2023-05-19T20:53:30.002Z,15.01
2023-05-19T20:55:58.132Z,14.99
2023-05-19T20:58:30.303Z,14.96
2023-05-19T21:00:58.527Z,14.90
2023-05-19T21:03:30.481Z,14.89
2023-05-19T21:05:59.001Z,14.81
2023-05-19T21:08:27.321Z,14.77
2023-05-19T21:10:55.456Z,14.72
2023-05-19T21:13:23.628Z,14.65
2023-05-19T21:15:53.084Z,14.62
2023-05-19T21:18:21.422Z,14.50
2023-05-19T21:20:49.546Z,14.44
2023-05-19T21:23:17.797Z,14.42
2023-05-19T21:25:45.955Z,14.28
2023-05-19T21:28:14.167Z,14.22
2023-05-19T21:30:42.445Z,14.14
2023-05-19T21:33:12.016Z,14.23
2023-05-19T21:35:40.223Z,14.15
2023-05-19T21:38:22.154Z,14.07
2023-05-19T21:40:51.357Z,14.05
2023-05-19T21:43:19.557Z,13.95
2023-05-19T21:45:47.811Z,13.96
2023-05-19T21:48:19.610Z,13.86
2023-05-19T21:50:52.489Z,13.84
2023-05-19T21:53:20.404Z,13.81
2023-05-19T21:55:48.525Z,13.72
2023-05-19T21:58:16.623Z,13.64
2023-05-19T22:00:49.824Z,13.57
2023-05-19T22:03:19.903Z,13.47
2023-05-19T22:05:50.915Z,13.46
2023-05-19T22:08:20.287Z,13.50
2023-05-19T22:10:50.947Z,13.48
2023-05-19T22:13:19.207Z,13.40
2023-05-19T22:15:47.686Z,13.39
2023-05-19T22:18:15.779Z,13.35
2023-05-19T22:20:45.460Z,13.30
2023-05-19T22:23:13.627Z,13.32
2023-05-19T22:25:41.743Z,13.29
2023-05-19T22:28:09.921Z,13.29
2023-05-19T22:30:41.061Z,13.12
2023-05-19T22:33:09.640Z,13.09
2023-05-19T22:35:40.388Z,13.11
2023-05-19T22:38:10.828Z,13.11
2023-05-19T22:40:39.473Z,13.07
2023-05-19T22:43:07.559Z,13.03
2023-05-19T22:45:36.628Z,12.98
2023-05-19T22:48:05.372Z,12.97
2023-05-19T22:50:33.500Z,12.87
2023-05-19T22:53:01.608Z,12.77
2023-05-19T22:55:31.178Z,12.71
2023-05-19T22:57:59.511Z,12.71
2023-05-19T23:00:29.822Z,12.77
2023-05-19T23:02:58.458Z,12.78
2023-05-19T23:05:26.632Z,12.76
2023-05-19T23:07:54.856Z,12.75
2023-05-19T23:10:23.040Z,12.69
2023-05-19T23:12:52.636Z,12.65
2023-05-19T23:15:20.860Z,12.55
2023-05-19T23:17:48.987Z,12.48
2023-05-19T23:20:20.029Z,12.54
2023-05-19T23:22:48.281Z,12.45
2023-05-19T23:25:16.399Z,12.42
2023-05-19T23:27:46.530Z,12.42
2023-05-19T23:30:16.092Z,12.40
2023-05-19T23:32:44.312Z,12.31
2023-05-19T23:35:13.668Z,12.29
2023-05-19T23:37:41.837Z,12.31
2023-05-19T23:40:10.849Z,12.26
2023-05-19T23:42:39.005Z,12.25
2023-05-19T23:45:08.193Z,12.18
2023-05-19T23:47:40.738Z,12.26
2023-05-19T23:50:09.581Z,12.15
2023-05-19T23:52:37.693Z,12.09
2023-05-19T23:55:07.479Z,12.04
2023-05-19T23:57:35.611Z,12.13
